Time;durP1;ratioP1;P1;durP2;ratioP2;P2;SDS_P1;SDS_P2;PMS_P1;PMS_P2;Temp;Humidity;BMP_temperature;BMP_pressure;BME280_temperature;BME280_humidity;BME280_pressure;Samples;Min_cycle;Max_cycle;Signal;HPM_P1;HPM_P2
2022/05/13 00:02:06;;;;;;;5.32;2.22;;;12.60;99.90;;;;;;5093011;28;20234;-85
2022/05/13 00:04:33;;;;;;;4.07;2.40;;;12.10;99.90;;;;;;5093099;28;20300;-84
2022/05/13 00:06:59;;;;;;;4.03;2.17;;;12.20;99.90;;;;;;5075405;28;20295;-85
2022/05/13 00:09:56;;;;;;;3.10;2.28;;;;;;;;;;5075301;28;20187;-84
2022/05/13 00:12:14;;;;;;;8.10;2.72;;;12.40;99.90;;;;;;5078489;28;20225;-84
2022/05/13 00:14:41;;;;;;;8.77;2.42;;;12.50;99.90;;;;;;5075413;28;20184;-84
2022/05/13 00:17:07;;;;;;;3.72;2.22;;;12.30;99.90;;;;;;5058995;28;20194;-84
2022/05/13 00:19:33;;;;;;;3.88;2.60;;;;;;;;;;5075844;28;20255;-84
2022/05/13 00:21:59;;;;;;;3.10;2.20;;;11.90;99.90;;;;;;5093328;28;20221;-84
2022/05/13 00:24:26;;;;;;;5.32;2.88;;;11.90;99.90;;;;;;5058613;28;20171;-85
2022/05/13 00:26:52;;;;;;;8.40;3.55;;;11.70;99.90;;;;;;5075498;28;20715;-85
2022/05/13 00:29:18;;;;;;;4.97;2.97;;;;;;;;;;5060574;28;20210;-87
2022/05/13 00:31:44;;;;;;;7.03;3.20;;;11.80;99.90;;;;;;5070012;28;20624;-85
2022/05/13 00:34:10;;;;;;;5.97;3.65;;;;;;;;;;5060927;28;20189;-85
2022/05/13 00:36:36;;;;;;;5.05;3.30;;;12.10;99.90;;;;;;5077390;28;20281;-85
2022/05/13 00:39:06;;;;;;;3.85;2.50;;;11.70;99.90;;;;;;5079339;28;20175;-84
2022/05/13 00:41:32;;;;;;;5.55;3.22;;;;;;;;;;5044646;28;20226;-84
2022/05/13 00:43:58;;;;;;;7.55;2.97;;;11.30;99.90;;;;;;5078310;28;20638;-84
2022/05/13 00:46:26;;;;;;;8.77;2.65;;;11.80;99.90;;;;;;5064204;28;20277;-85
2022/05/13 00:48:52;;;;;;;7.75;3.15;;;11.70;99.90;;;;;;5100891;28;20182;-84
2022/05/13 00:51:22;;;;;;;5.78;2.78;;;11.50;99.90;;;;;;5082717;28;20186;-85
2022/05/13 00:53:49;;;;;;;3.78;2.38;;;11.70;99.90;;;;;;5073232;28;20267;-84
2022/05/13 00:56:16;;;;;;;7.97;3.42;;;11.60;99.90;;;;;;5091619;28;20185;-84
2022/05/13 00:58:46;;;;;;;6.97;3.25;;;11.50;99.90;;;;;;5064301;28;20181;-86
2022/05/13 01:01:12;;;;;;;5.80;3.42;;;10.90;99.90;;;;;;5098905;28;20313;-85
2022/05/13 01:03:38;;;;;;;4.90;2.67;;;;;;;;;;5078461;28;20262;-85
2022/05/13 01:06:07;;;;;;;6.07;2.97;;;11.40;99.90;;;;;;5078737;28;20216;-85
2022/05/13 01:08:35;;;;;;;4.90;2.80;;;11.10;99.90;;;;;;5096846;28;20170;-85
2022/05/13 01:11:04;;;;;;;6.70;2.90;;;10.70;99.90;;;;;;5096998;28;20178;-85
2022/05/13 01:13:32;;;;;;;9.73;2.65;;;11.00;99.90;;;;;;5078714;28;20605;-85
2022/05/13 01:15:58;;;;;;;9.60;3.10;;;11.00;99.90;;;;;;5078802;28;20175;-84
2022/05/13 01:18:36;;;;;;;3.00;1.98;;;10.90;99.90;;;;;;5080679;28;20178;-85
2022/05/13 01:21:05;;;;;;;4.30;2.92;;;10.90;99.90;;;;;;5107351;28;20174;-83
2022/05/13 01:23:34;;;;;;;5.03;3.13;;;11.00;99.90;;;;;;5078962;28;20269;-85
2022/05/13 01:26:06;;;;;;;7.68;2.72;;;10.50;99.90;;;;;;5096444;28;20229;-84
2022/05/13 01:28:38;;;;;;;4.32;3.00;;;10.80;99.90;;;;;;5096348;28;20246;-85
2022/05/13 01:31:09;;;;;;;2.95;2.20;;;10.90;99.90;;;;;;5078488;28;20167;-85
2022/05/13 01:33:35;;;;;;;4.70;3.13;;;11.10;99.90;;;;;;5077964;28;20270;-84
2022/05/13 01:36:03;;;;;;;4.25;2.22;;;10.70;99.90;;;;;;5077976;28;20211;-85
2022/05/13 01:38:35;;;;;;;3.50;2.53;;;10.70;99.90;;;;;;5060984;28;20316;-85
2022/05/13 01:41:02;;;;;;;2.53;2.30;;;10.80;99.90;;;;;;5096092;28;20174;-85
2022/05/13 01:43:29;;;;;;;5.57;2.40;;;10.80;99.90;;;;;;5077207;28;20236;-85
2022/05/13 01:45:55;;;;;;;4.68;3.15;;;10.60;99.90;;;;;;5077010;28;20291;-84
2022/05/13 01:48:21;;;;;;;7.68;2.70;;;10.70;99.90;;;;;;5095208;28;20198;-85
2022/05/13 01:50:47;;;;;;;7.63;3.03;;;;;;;;;;5076854;28;20177;-85
2022/05/13 01:53:14;;;;;;;4.18;2.90;;;;;;;;;;5077025;28;20194;-85
2022/05/13 01:55:42;;;;;;;6.35;3.05;;;10.70;99.90;;;;;;5059678;28;20222;-85
2022/05/13 01:58:10;;;;;;;4.60;2.78;;;10.80;99.90;;;;;;5077061;28;20182;-84
2022/05/13 02:00:36;;;;;;;4.90;2.95;;;10.70;99.90;;;;;;5077025;28;20179;-85
2022/05/13 02:05:46;;;;;;;6.20;3.70;;;10.40;99.90;;;;;;5080184;28;20173;-84
2022/05/13 02:08:12;;;;;;;4.35;3.08;;;10.50;99.90;;;;;;5077495;28;20257;-84
2022/05/13 02:10:38;;;;;;;6.05;3.25;;;;;;;;;;5076912;28;20273;-85
2022/05/13 02:13:04;;;;;;;6.15;3.25;;;10.80;99.90;;;;;;5077397;28;20186;-84
2022/05/13 02:15:30;;;;;;;7.40;3.63;;;11.00;99.90;;;;;;5077080;28;20631;-84
2022/05/13 02:17:56;;;;;;;7.07;3.85;;;11.20;99.90;;;;;;5084983;28;20186;-85
2022/05/13 02:20:22;;;;;;;3.70;2.40;;;;;;;;;;5080368;28;20174;-84
2022/05/13 02:22:48;;;;;;;4.80;2.85;;;11.30;99.90;;;;;;5083314;28;20206;-84
2022/05/13 02:25:14;;;;;;;5.55;2.55;;;;;;;;;;5066099;28;20304;-84
2022/05/13 02:27:39;;;;;;;5.22;3.10;;;11.30;99.90;;;;;;5094809;28;20302;-85
2022/05/13 02:30:06;;;;;;;4.70;3.00;;;11.00;99.90;;;;;;5056999;28;20225;-84
2022/05/13 02:32:32;;;;;;;4.13;2.80;;;11.00;99.90;;;;;;5085934;28;20162;-84
2022/05/13 02:34:58;;;;;;;4.88;2.50;;;;;;;;;;5102092;28;20189;-85
2022/05/13 02:37:23;;;;;;;7.00;2.88;;;11.20;99.90;;;;;;5119970;28;20234;-84
2022/05/13 02:39:49;;;;;;;5.05;3.17;;;;;;;;;;5102056;28;20194;-85
2022/05/13 02:42:15;;;;;;;9.50;3.00;;;11.10;99.90;;;;;;5119592;28;20198;-85
2022/05/13 02:44:41;;;;;;;5.10;3.35;;;11.00;99.90;;;;;;5098209;28;20171;-86
2022/05/13 02:47:07;;;;;;;6.25;3.35;;;11.50;99.90;;;;;;5077284;28;20190;-84
2022/05/13 02:49:33;;;;;;;3.78;2.67;;;;;;;;;;5076953;28;20509;-84
2022/05/13 02:51:59;;;;;;;5.82;3.90;;;11.10;99.90;;;;;;5095014;28;20178;-84
2022/05/13 02:54:24;;;;;;;5.82;3.55;;;11.30;99.90;;;;;;5076879;28;20189;-84
2022/05/13 02:56:50;;;;;;;4.55;2.45;;;11.00;99.90;;;;;;5059593;28;20182;-84
2022/05/13 02:59:16;;;;;;;5.88;3.03;;;;;;;;;;5095183;28;20175;-84
2022/05/13 03:01:41;;;;;;;5.47;2.95;;;11.00;99.90;;;;;;5096715;28;20226;-89
2022/05/13 03:04:08;;;;;;;4.38;2.60;;;;;;;;;;5080041;28;20246;-84
2022/05/13 03:06:34;;;;;;;4.53;2.88;;;11.30;99.90;;;;;;5077629;28;20619;-84
2022/05/13 03:09:00;;;;;;;3.88;2.53;;;;;;;;;;5078445;28;20183;-84
2022/05/13 03:11:25;;;;;;;5.68;3.00;;;11.00;99.90;;;;;;5078437;28;20217;-84
2022/05/13 03:13:52;;;;;;;6.65;2.70;;;11.10;99.90;;;;;;5044840;28;20549;-85
2022/05/13 03:16:21;;;;;;;2.80;2.30;;;11.60;99.90;;;;;;5061953;28;20182;-85
2022/05/13 03:18:58;;;;;;;5.18;3.13;;;11.00;99.90;;;;;;5095658;28;20178;-87
2022/05/13 03:21:24;;;;;;;5.10;2.72;;;11.00;99.90;;;;;;5094106;28;20190;-84
2022/05/13 03:23:50;;;;;;;3.78;2.70;;;;;;;;;;5094746;28;20174;-85
2022/05/13 03:26:19;;;;;;;3.88;3.00;;;11.50;99.90;;;;;;5059592;28;20174;-84
2022/05/13 03:28:45;;;;;;;9.77;3.92;;;;;;;;;;5076633;28;20178;-89
2022/05/13 03:31:11;;;;;;;7.28;3.67;;;;;;;;;;5075005;28;20256;-85
2022/05/13 03:33:37;;;;;;;6.32;2.97;;;11.20;99.90;;;;;;5076323;28;20560;-85
2022/05/13 03:36:03;;;;;;;5.15;2.97;;;11.50;99.90;;;;;;5078528;28;20173;-84
2022/05/13 03:38:29;;;;;;;4.05;2.85;;;11.10;99.90;;;;;;5086848;28;20183;-84
2022/05/13 03:40:55;;;;;;;5.40;3.25;;;;;;;;;;5052553;28;20228;-84
2022/05/13 03:43:20;;;;;;;3.97;2.78;;;11.20;99.90;;;;;;5055565;28;20214;-84
2022/05/13 03:45:46;;;;;;;5.40;2.83;;;;;;;;;;5039004;28;20183;-85
2022/05/13 03:48:12;;;;;;;4.25;2.78;;;11.40;99.90;;;;;;5055618;28;20175;-83
2022/05/13 03:50:40;;;;;;;3.88;2.35;;;11.50;99.90;;;;;;5054279;28;20182;-84
2022/05/13 03:53:05;;;;;;;3.95;2.40;;;11.40;99.90;;;;;;5055790;28;20193;-83
2022/05/13 03:55:33;;;;;;;4.88;2.47;;;;;;;;;;5073392;28;20171;-84
2022/05/13 03:57:59;;;;;;;9.75;2.70;;;;;;;;;;5064895;28;20178;-84
2022/05/13 04:00:26;;;;;;;5.55;2.83;;;11.30;99.90;;;;;;5081627;28;20186;-84
2022/05/13 04:02:53;;;;;;;3.50;2.65;;;;;;;;;;5073982;28;20241;-86
2022/05/13 04:10:49;;;;;;;4.18;2.30;;;11.90;99.90;;;;;;5082203;28;20178;-84
2022/05/13 04:16:08;;;;;;;7.28;3.33;;;11.90;99.90;;;;;;5073183;28;20244;-84
2022/05/13 04:18:34;;;;;;;3.15;2.45;;;12.10;99.90;;;;;;5075869;28;20249;-85
2022/05/13 04:21:00;;;;;;;5.07;2.60;;;12.50;99.90;;;;;;5077281;28;20597;-84
2022/05/13 04:23:27;;;;;;;4.30;2.78;;;12.30;99.90;;;;;;5077177;28;20215;-84
2022/05/13 04:25:52;;;;;;;2.55;2.17;;;12.30;99.90;;;;;;5059914;28;20178;-85
2022/05/13 04:28:18;;;;;;;4.28;2.38;;;;;;;;;;5059332;28;20187;-87
2022/05/13 04:30:44;;;;;;;3.08;2.30;;;12.90;99.90;;;;;;5042397;28;20175;-84
2022/05/13 04:33:14;;;;;;;2.60;1.90;;;12.90;99.90;;;;;;5077011;28;20190;-86
2022/05/13 04:35:41;;;;;;;7.47;3.08;;;12.50;99.90;;;;;;5080172;28;20321;-86
2022/05/13 04:38:09;;;;;;;5.40;3.17;;;12.80;99.90;;;;;;5082496;28;20205;-85
2022/05/13 04:40:36;;;;;;;5.22;2.85;;;12.90;99.90;;;;;;5110889;28;20635;-85
2022/05/13 04:43:02;;;;;;;3.22;2.40;;;;;;;;;;5081662;28;20613;-85
2022/05/13 04:45:30;;;;;;;3.05;2.22;;;13.20;99.90;;;;;;5106129;28;20174;-86
2022/05/13 04:50:48;;;;;;;4.80;2.70;;;12.90;99.90;;;;;;5107080;28;20188;-85
2022/05/13 04:53:28;;;;;;;2.33;2.05;;;12.90;99.90;;;;;;5084353;28;20170;-84
2022/05/13 04:55:55;;;;;;;5.38;2.70;;;13.20;99.90;;;;;;5078868;28;20180;-84
2022/05/13 04:58:24;;;;;;;5.68;2.60;;;;;;;;;;5092802;28;20177;-85
2022/05/13 05:00:53;;;;;;;3.40;2.53;;;13.50;99.90;;;;;;5094968;28;20676;-88
2022/05/13 05:03:20;;;;;;;4.43;2.85;;;13.80;99.90;;;;;;5098476;28;20201;-86
2022/05/13 05:05:49;;;;;;;4.20;2.20;;;13.40;99.90;;;;;;5097296;28;20178;-86
2022/05/13 05:08:16;;;;;;;4.30;2.88;;;13.70;99.90;;;;;;5071456;28;20166;-86
2022/05/13 05:10:43;;;;;;;4.38;2.78;;;13.90;99.90;;;;;;5083400;28;20182;-85
2022/05/13 05:13:10;;;;;;;3.65;2.53;;;14.20;99.90;;;;;;5078386;28;20185;-88
2022/05/13 05:15:39;;;;;;;3.95;2.72;;;14.10;99.90;;;;;;5078303;28;20185;-86
2022/05/13 05:18:07;;;;;;;5.05;2.78;;;;;;;;;;5078266;28;20206;-87
2022/05/13 05:20:33;;;;;;;3.20;2.80;;;14.10;99.90;;;;;;5078444;28;20179;-86
2022/05/13 05:22:59;;;;;;;4.18;2.85;;;14.70;99.90;;;;;;5060888;28;20293;-86
2022/05/13 05:25:29;;;;;;;4.57;2.92;;;;;;;;;;5044349;28;20278;-88
2022/05/13 05:27:58;;;;;;;4.22;2.90;;;14.50;99.90;;;;;;5077470;28;20175;-87
2022/05/13 05:30:25;;;;;;;5.30;2.80;;;14.90;99.90;;;;;;5077084;28;20170;-86
2022/05/13 05:32:51;;;;;;;8.57;2.92;;;15.20;99.90;;;;;;5061347;28;20216;-86
2022/05/13 05:35:20;;;;;;;4.78;2.58;;;14.90;99.90;;;;;;5095652;28;20205;-87
2022/05/13 05:37:47;;;;;;;4.18;3.10;;;;;;;;;;5080523;28;20217;-86
2022/05/13 05:40:12;;;;;;;3.75;2.67;;;15.40;99.90;;;;;;5095536;28;20178;-87
2022/05/13 05:42:39;;;;;;;5.93;2.33;;;;;;;;;;5065730;28;20256;-87
2022/05/13 05:45:06;;;;;;;3.47;2.00;;;15.10;99.90;;;;;;5071589;28;20182;-86
2022/05/13 05:47:32;;;;;;;5.40;2.50;;;15.30;99.90;;;;;;5095944;28;20186;-87
2022/05/13 05:49:59;;;;;;;3.55;2.28;;;15.70;99.90;;;;;;5082851;28;20653;-88
2022/05/13 05:52:25;;;;;;;5.13;2.63;;;15.70;99.90;;;;;;5084993;28;20316;-87
2022/05/13 05:57:35;;;;;;;1.73;1.60;;;15.60;99.90;;;;;;5076394;28;20274;-87
2022/05/13 06:00:02;;;;;;;1.85;1.67;;;;;;;;;;5050380;28;20648;-87
2022/05/13 06:02:30;;;;;;;3.83;2.22;;;;;;;;;;5049125;28;20228;-87
2022/05/13 06:04:59;;;;;;;4.25;2.92;;;16.60;99.90;;;;;;5081732;28;20544;-87
2022/05/13 06:07:26;;;;;;;4.45;2.78;;;;;;;;;;5049510;28;20274;-87
2022/05/13 06:09:53;;;;;;;4.50;3.38;;;16.40;99.90;;;;;;5067588;28;20182;-88
2022/05/13 06:12:19;;;;;;;6.70;2.78;;;16.70;99.90;;;;;;5060444;28;20184;-88
2022/05/13 06:14:45;;;;;;;2.35;1.80;;;;;;;;;;5054539;28;20187;-86
2022/05/13 06:17:11;;;;;;;3.22;2.38;;;;;;;;;;5038042;28;20190;-87
2022/05/13 06:19:37;;;;;;;2.95;1.77;;;16.90;99.90;;;;;;5057947;28;20186;-88
2022/05/13 06:22:04;;;;;;;4.63;2.17;;;16.50;99.90;;;;;;5067645;28;20269;-87
2022/05/13 06:24:30;;;;;;;3.30;1.80;;;;;;;;;;5056666;28;20237;-88
2022/05/13 06:26:56;;;;;;;3.58;2.17;;;;;;;;;;5059134;28;20191;-87
2022/05/13 06:29:24;;;;;;;3.03;1.98;;;16.60;99.90;;;;;;5075614;28;20179;-88
2022/05/13 06:31:50;;;;;;;3.67;1.98;;;;;;;;;;5078017;28;20202;-87
2022/05/13 06:34:16;;;;;;;3.95;2.13;;;17.10;99.90;;;;;;5076987;28;20210;-89
2022/05/13 06:36:45;;;;;;;2.85;1.73;;;;;;;;;;5065690;28;20237;-86
2022/05/13 06:39:13;;;;;;;2.08;1.67;;;;;;;;;;5077564;28;20183;-88
2022/05/13 06:41:42;;;;;;;4.68;2.38;;;;;;;;;;5076552;28;20210;-87
2022/05/13 06:44:08;;;;;;;1.52;1.30;;;17.30;99.90;;;;;;5079643;28;20224;-87
2022/05/13 06:46:37;;;;;;;0.98;0.93;;;16.90;99.90;;;;;;5074956;28;20187;-86
2022/05/13 06:49:04;;;;;;;5.07;1.70;;;;;;;;;;5073017;28;20175;-86
2022/05/13 06:51:31;;;;;;;3.85;1.20;;;17.90;99.90;;;;;;5073069;28;20526;-86
2022/05/13 06:54:03;;;;;;;1.15;0.95;;;17.10;99.90;;;;;;5072969;28;20192;-88
2022/05/13 06:56:31;;;;;;;0.90;0.90;;;17.70;99.90;;;;;;5058149;28;20168;-86
2022/05/13 06:58:57;;;;;;;1.00;0.90;;;17.50;99.90;;;;;;5052047;28;20179;-86
2022/05/13 07:01:23;;;;;;;4.70;1.40;;;17.10;99.90;;;;;;5035271;28;20242;-87
2022/05/13 07:03:49;;;;;;;4.35;1.60;;;;;;;;;;5058834;28;20178;-86
2022/05/13 07:06:15;;;;;;;0.88;0.88;;;;;;;;;;5092279;28;20190;-87
2022/05/13 07:08:41;;;;;;;1.65;1.00;;;17.70;99.10;;;;;;5073551;28;20183;-86
2022/05/13 07:11:07;;;;;;;2.35;1.27;;;;;;;;;;5078899;28;20248;-86
2022/05/13 07:13:33;;;;;;;2.00;1.20;;;;;;;;;;5054557;28;20176;-87
2022/05/13 07:15:59;;;;;;;1.85;0.68;;;17.60;99.90;;;;;;5072113;28;20665;-86
2022/05/13 07:18:25;;;;;;;1.52;0.75;;;;;;;;;;5071961;28;20225;-86
2022/05/13 07:20:51;;;;;;;1.05;0.90;;;17.60;97.70;;;;;;5073742;28;20206;-86
2022/05/13 07:23:17;;;;;;;3.70;0.90;;;18.20;97.80;;;;;;5071216;28;20230;-86
2022/05/13 07:25:43;;;;;;;1.05;0.82;;;;;;;;;;5071682;28;20616;-86
2022/05/13 07:28:09;;;;;;;0.90;0.90;;;18.00;96.90;;;;;;5072684;28;20546;-85
2022/05/13 07:30:35;;;;;;;0.73;0.60;;;;;;;;;;5054851;28;20621;-86
2022/05/13 07:33:01;;;;;;;2.33;0.98;;;;;;;;;;5071662;28;20627;-86
2022/05/13 07:35:26;;;;;;;4.00;0.88;;;17.80;93.90;;;;;;5071988;28;20179;-87
2022/05/13 07:37:52;;;;;;;1.70;0.65;;;;;;;;;;5073905;28;20179;-86
2022/05/13 07:43:03;;;;;;;0.85;0.85;;;18.50;95.10;;;;;;5072792;28;20284;-87
2022/05/13 07:45:29;;;;;;;1.38;0.90;;;;;;;;;;5071967;28;20284;-87
2022/05/13 07:47:55;;;;;;;0.65;0.60;;;18.50;87.20;;;;;;5074591;28;20690;-87
2022/05/13 07:50:22;;;;;;;0.57;0.57;;;18.50;92.60;;;;;;5072491;28;20172;-87
2022/05/13 07:52:50;;;;;;;1.00;0.68;;;18.40;92.90;;;;;;5070704;28;20660;-87
2022/05/13 07:55:16;;;;;;;0.95;0.80;;;18.10;94.30;;;;;;5072656;28;20260;-88
2022/05/13 07:57:43;;;;;;;1.40;0.90;;;;;;;;;;5072391;28;20250;-87
2022/05/13 08:00:32;;;;;;;1.88;1.15;;;18.10;81.20;;;;;;5072185;28;20172;-89
2022/05/13 08:03:08;;;;;;;4.00;0.80;;;18.50;93.30;;;;;;5084977;28;20222;-88
2022/05/13 08:05:40;;;;;;;0.65;0.65;;;19.00;81.30;;;;;;5073555;28;20190;-89
2022/05/13 08:08:08;;;;;;;0.60;0.60;;;;;;;;;;5117285;28;20154;-88
2022/05/13 08:10:35;;;;;;;0.60;0.60;;;;;;;;;;5056563;28;20194;-88
2022/05/13 08:13:01;;;;;;;1.35;0.65;;;;;;;;;;5072487;28;20183;-88
2022/05/13 08:15:28;;;;;;;0.90;0.90;;;18.80;89.40;;;;;;5038052;28;20187;-88
2022/05/13 08:17:54;;;;;;;3.58;1.95;;;19.40;90.20;;;;;;5075994;28;20178;-89
2022/05/13 08:20:20;;;;;;;0.70;0.68;;;19.20;74.70;;;;;;5057927;28;20547;-88
2022/05/13 08:22:46;;;;;;;1.55;1.13;;;18.90;86.20;;;;;;5039640;28;20204;-88
2022/05/13 08:25:12;;;;;;;3.30;1.02;;;;;;;;;;5038959;28;20191;-88
2022/05/13 08:27:38;;;;;;;0.70;0.70;;;19.00;85.70;;;;;;5038539;28;20221;-88
2022/05/13 08:30:05;;;;;;;0.50;0.50;;;19.10;85.60;;;;;;5073785;28;20213;-88
2022/05/13 08:32:31;;;;;;;1.05;0.52;;;;;;;;;;5038947;28;20219;-88
2022/05/13 08:34:57;;;;;;;3.50;1.80;;;19.40;85.90;;;;;;5038564;28;20187;-87
2022/05/13 08:37:26;;;;;;;0.70;0.60;;;;;;;;;;5054472;28;20198;-89
2022/05/13 08:39:55;;;;;;;0.60;0.55;;;;;;;;;;5054812;28;20202;-88
2022/05/13 08:42:27;;;;;;;0.63;0.57;;;;;;;;;;5039668;28;20214;-89
2022/05/13 08:44:56;;;;;;;1.13;0.60;;;19.40;73.60;;;;;;5074292;28;20176;-88
2022/05/13 08:47:33;;;;;;;0.88;0.70;;;;;;;;;;5040096;28;20186;-88
2022/05/13 08:50:37;;;;;;;0.98;0.75;;;19.50;71.20;;;;;;5054933;28;20178;-88
2022/05/13 08:53:52;;;;;;;1.40;0.80;;;19.50;71.10;;;;;;5071635;28;20643;-89
2022/05/13 08:56:26;;;;;;;0.85;0.65;;;19.30;70.50;;;;;;5010238;28;20241;-87
2022/05/13 08:59:11;;;;;;;1.35;1.13;;;19.10;71.40;;;;;;5072936;28;20178;-88
2022/05/13 09:01:45;;;;;;;1.33;0.60;;;19.10;71.50;;;;;;5083821;28;20356;-88
2022/05/13 09:04:34;;;;;;;1.02;0.68;;;19.00;71.20;;;;;;5074079;28;20174;-88
2022/05/13 09:07:03;;;;;;;1.90;0.65;;;19.40;83.80;;;;;;5096397;28;20190;-89
2022/05/13 09:09:29;;;;;;;1.45;0.75;;;19.40;82.50;;;;;;5077247;28;20179;-88
2022/05/13 09:11:55;;;;;;;1.33;0.63;;;;;;;;;;5077712;28;20208;-88
2022/05/13 09:14:42;;;;;;;0.68;0.50;;;19.10;82.70;;;;;;5077690;28;20595;-90
2022/05/13 09:17:09;;;;;;;0.70;0.52;;;;;;;;;;5087431;28;20193;-90
2022/05/13 09:20:06;;;;;;;0.60;0.52;;;19.00;81.80;;;;;;5090189;28;20178;-87
2022/05/13 09:22:44;;;;;;;0.65;0.60;;;19.90;83.70;;;;;;5059981;28;20222;-87
2022/05/13 09:25:24;;;;;;;4.15;0.60;;;19.90;82.70;;;;;;5079265;28;20643;-89
2022/05/13 09:27:58;;;;;;;0.60;0.60;;;19.80;68.50;;;;;;5076816;28;20174;-86
2022/05/13 09:30:37;;;;;;;1.63;0.73;;;19.30;80.00;;;;;;5085422;28;20619;-90
2022/05/13 09:33:22;;;;;;;1.00;0.60;;;19.80;80.80;;;;;;5081492;28;20163;-89
2022/05/13 09:35:52;;;;;;;0.95;0.93;;;20.10;68.30;;;;;;5065794;28;20705;-89
2022/05/13 09:38:21;;;;;;;2.63;1.60;;;20.00;68.70;;;;;;5066411;28;20168;-89
2022/05/13 09:40:58;;;;;;;0.60;0.55;;;20.10;79.40;;;;;;5079728;28;20194;-89
2022/05/13 09:43:42;;;;;;;2.70;0.88;;;19.70;78.60;;;;;;5082360;28;20206;-88
2022/05/13 09:46:33;;;;;;;0.52;0.52;;;19.90;66.50;;;;;;5088600;28;20167;-89
2022/05/13 09:49:19;;;;;;;0.90;0.70;;;20.00;80.20;;;;;;5085697;28;20183;-88
2022/05/13 09:52:23;;;;;;;0.90;0.70;;;20.30;70.00;;;;;;5076586;28;20183;-90
2022/05/13 09:54:49;;;;;;;0.50;0.50;;;;;;;;;;4976876;28;20309;-87
2022/05/13 09:57:33;;;;;;;0.85;0.70;;;20.40;78.20;;;;;;5081918;28;20188;-88
2022/05/13 10:00:02;;;;;;;0.60;0.60;;;;;;;;;;5097372;28;20322;-88
2022/05/13 10:02:28;;;;;;;0.70;0.70;;;;;;;;;;5096520;28;20268;-88
2022/05/13 10:05:09;;;;;;;2.50;1.00;;;20.50;65.60;;;;;;5095707;28;20223;-89
2022/05/13 10:07:41;;;;;;;0.82;0.73;;;20.50;77.10;;;;;;5114297;28;20200;-87
2022/05/13 10:15:47;;;;;;;1.00;1.00;;;20.80;63.70;;;;;;5079742;28;20764;-88
2022/05/13 10:18:34;;;;;;;0.98;0.70;;;20.70;74.80;;;;;;5057668;28;20178;-88
2022/05/13 10:21:12;;;;;;;0.90;0.90;;;21.20;71.00;;;;;;5060921;28;20186;-86
2022/05/13 10:23:51;;;;;;;0.80;0.75;;;;;;;;;;5055615;28;20236;-87
2022/05/13 10:26:20;;;;;;;2.60;0.70;;;21.20;63.30;;;;;;5056458;28;20214;-89
2022/05/13 10:28:54;;;;;;;1.90;0.93;;;21.40;84.30;;;;;;5055493;28;20179;-88
2022/05/13 10:31:26;;;;;;;0.68;0.57;;;21.50;63.30;;;;;;5086269;28;20209;-86
2022/05/13 10:33:59;;;;;;;1.25;0.80;;;;;;;;;;5083752;28;20170;-87
2022/05/13 10:36:48;;;;;;;1.08;0.75;;;21.30;61.80;;;;;;5081791;28;20258;-87
2022/05/13 10:39:22;;;;;;;4.03;0.90;;;21.40;62.10;;;;;;5096297;28;20223;-87
2022/05/13 10:41:59;;;;;;;0.95;0.70;;;21.40;62.00;;;;;;5085383;28;20225;-87
2022/05/13 10:45:05;;;;;;;1.73;0.88;;;21.50;65.00;;;;;;5058624;28;20179;-87
2022/05/13 10:47:48;;;;;;;1.83;0.90;;;21.70;62.50;;;;;;5073090;28;20248;-88
2022/05/13 10:50:13;;;;;;;3.25;1.15;;;21.80;72.90;;;;;;5073221;28;20170;-87
2022/05/13 10:53:15;;;;;;;1.50;0.93;;;22.50;70.90;;;;;;5071468;28;20187;-88
2022/05/13 10:55:41;;;;;;;1.10;0.60;;;;;;;;;;5053504;28;20555;-88
2022/05/13 10:58:44;;;;;;;0.63;0.63;;;21.60;69.40;;;;;;5072054;28;20183;-88
2022/05/13 11:01:21;;;;;;;1.48;0.73;;;21.90;59.10;;;;;;5071130;28;20716;-87
2022/05/13 11:04:09;;;;;;;0.75;0.50;;;21.20;66.30;;;;;;5071265;28;20814;-86
2022/05/13 11:06:35;;;;;;;0.90;0.77;;;;;;;;;;5072304;28;20711;-87
2022/05/13 11:09:34;;;;;;;1.13;0.88;;;21.60;59.40;;;;;;5071055;28;20274;-88
2022/05/13 11:12:26;;;;;;;0.75;0.70;;;21.60;58.40;;;;;;5070767;28;20175;-87
2022/05/13 11:15:12;;;;;;;1.65;0.95;;;21.70;59.60;;;;;;5070796;28;20179;-89
2022/05/13 11:18:26;;;;;;;0.77;0.77;;;21.90;58.60;;;;;;5054488;28;20207;-89
2022/05/13 11:21:13;;;;;;;1.30;0.95;;;22.30;68.10;;;;;;5070770;28;20183;-89
2022/05/13 11:27:06;;;;;;;1.23;0.88;;;22.00;59.30;;;;;;5114412;28;20220;-89
2022/05/13 11:29:55;;;;;;;1.20;0.75;;;22.00;59.40;;;;;;5106006;28;20517;-86
2022/05/13 11:32:21;;;;;;;1.42;1.15;;;;;;;;;;5115709;28;20197;-86
2022/05/13 11:34:47;;;;;;;0.93;0.85;;;;;;;;;;5108419;28;20657;-88
2022/05/13 11:37:15;;;;;;;1.60;0.65;;;;;;;;;;5075662;28;20183;-86
2022/05/13 11:40:12;;;;;;;1.90;1.10;;;22.00;59.40;;;;;;5093638;28;20174;-88
2022/05/13 11:43:18;;;;;;;4.72;2.00;;;;;;;;;;5076024;28;20202;-87
2022/05/13 11:46:01;;;;;;;1.17;0.70;;;22.30;59.90;;;;;;5109915;28;20268;-87
2022/05/13 11:48:29;;;;;;;2.35;1.27;;;22.30;59.30;;;;;;5114075;28;20177;-87
2022/05/13 11:51:12;;;;;;;1.38;1.15;;;22.00;60.60;;;;;;5095391;28;20622;-88
2022/05/13 11:53:49;;;;;;;0.90;0.90;;;22.10;60.10;;;;;;5098410;28;20185;-87
2022/05/13 11:56:38;;;;;;;0.85;0.80;;;21.80;60.60;;;;;;5094469;28;20170;-88
2022/05/13 11:59:26;;;;;;;1.55;0.90;;;21.90;60.00;;;;;;5096285;28;20624;-87
2022/05/13 12:01:55;;;;;;;3.90;1.27;;;21.90;61.00;;;;;;5096956;28;20265;-87
2022/05/13 12:04:21;;;;;;;1.35;0.80;;;;;;;;;;5117139;28;20698;-87
2022/05/13 12:06:50;;;;;;;1.00;0.90;;;21.60;80.40;;;;;;5117243;28;20189;-87
2022/05/13 12:09:34;;;;;;;0.95;0.68;;;21.90;82.60;;;;;;5097144;28;20579;-86
2022/05/13 12:12:10;;;;;;;1.25;0.98;;;22.20;77.30;;;;;;5096280;28;20264;-86
2022/05/13 12:15:03;;;;;;;1.73;0.95;;;21.60;74.10;;;;;;5113959;28;20165;-86
2022/05/13 12:17:41;;;;;;;1.45;0.80;;;22.00;60.70;;;;;;5098096;28;20626;-87
2022/05/13 12:20:47;;;;;;;0.90;0.75;;;21.70;72.20;;;;;;5097498;28;20193;-87
2022/05/13 12:23:40;;;;;;;1.23;1.00;;;21.80;73.70;;;;;;5096349;28;20240;-86
2022/05/13 12:26:10;;;;;;;1.98;0.90;;;22.10;61.30;;;;;;5094887;28;20189;-87
2022/05/13 12:28:58;;;;;;;1.63;0.73;;;22.40;60.00;;;;;;5095416;28;20201;-87
2022/05/13 12:32:07;;;;;;;2.47;0.75;;;22.50;75.20;;;;;;5095433;28;20170;-87
2022/05/13 12:37:42;;;;;;;2.05;1.02;;;23.00;75.50;;;;;;5116295;28;20262;-87
2022/05/13 12:40:11;;;;;;;0.68;0.68;;;23.10;70.10;;;;;;5098374;28;20243;-87
2022/05/13 12:42:38;;;;;;;0.70;0.70;;;;;;;;;;5100166;28;20316;-88
2022/05/13 12:45:08;;;;;;;0.60;0.60;;;23.00;56.80;;;;;;5120230;28;20665;-87
2022/05/13 12:48:08;;;;;;;0.80;0.60;;;23.10;58.40;;;;;;5118302;28;20174;-86
2022/05/13 12:50:46;;;;;;;0.80;0.80;;;22.80;66.30;;;;;;5100365;28;20716;-87
2022/05/13 12:53:30;;;;;;;1.13;0.80;;;23.30;67.80;;;;;;5118084;28;20542;-86
2022/05/13 12:56:11;;;;;;;1.55;1.02;;;23.30;67.70;;;;;;5100639;28;20209;-88
2022/05/13 12:58:42;;;;;;;1.02;0.85;;;22.90;57.40;;;;;;5119053;28;20195;-88
2022/05/13 13:01:15;;;;;;;1.40;1.13;;;23.10;68.60;;;;;;5099063;28;20228;-87
2022/05/13 13:03:45;;;;;;;2.00;0.90;;;22.60;58.00;;;;;;5100034;28;20202;-88
2022/05/13 13:06:18;;;;;;;4.45;1.15;;;22.40;58.30;;;;;;5116971;28;20699;-87
2022/05/13 13:08:47;;;;;;;0.70;0.70;;;22.30;58.70;;;;;;5099699;28;20174;-87
2022/05/13 13:11:24;;;;;;;1.70;1.25;;;22.90;69.70;;;;;;5098774;28;20185;-89
2022/05/13 13:14:16;;;;;;;1.27;0.85;;;22.70;57.40;;;;;;5116614;28;20253;-87
2022/05/13 13:16:59;;;;;;;1.20;1.10;;;22.70;57.10;;;;;;5098613;28;20270;-89
2022/05/13 13:19:27;;;;;;;2.05;0.88;;;22.80;56.80;;;;;;5098838;28;20250;-87
2022/05/13 13:21:55;;;;;;;1.23;1.13;;;22.80;55.60;;;;;;5116561;28;20210;-86
2022/05/13 13:24:27;;;;;;;0.65;0.65;;;22.90;56.10;;;;;;5098589;28;20255;-86
2022/05/13 13:26:53;;;;;;;0.88;0.77;;;23.00;55.70;;;;;;5117220;28;20227;-90
2022/05/13 13:29:27;;;;;;;1.42;0.70;;;23.00;55.40;;;;;;5116593;28;20174;-88
2022/05/13 13:31:56;;;;;;;0.77;0.77;;;22.90;54.40;;;;;;5100419;28;20178;-87
2022/05/13 13:34:35;;;;;;;0.80;0.52;;;23.10;55.20;;;;;;5114423;28;20202;-88
2022/05/13 13:37:04;;;;;;;1.05;0.80;;;23.30;54.30;;;;;;5119650;28;20157;-90
2022/05/13 13:39:31;;;;;;;2.03;0.70;;;23.30;54.00;;;;;;5098781;28;20645;-89
2022/05/13 13:42:02;;;;;;;1.00;0.90;;;23.30;53.10;;;;;;5081152;28;20293;-87
2022/05/13 13:44:28;;;;;;;0.77;0.77;;;;;;;;;;5098027;28;20181;-88
2022/05/13 13:46:54;;;;;;;2.45;0.77;;;;;;;;;;5081222;28;20182;-85
2022/05/13 13:49:30;;;;;;;1.25;1.00;;;22.90;64.40;;;;;;5097638;28;20189;-86
2022/05/13 13:52:05;;;;;;;0.70;0.70;;;22.70;54.30;;;;;;5099378;28;20185;-88
2022/05/13 13:54:38;;;;;;;2.60;1.13;;;22.80;54.10;;;;;;5098111;28;20212;-87
2022/05/13 13:57:30;;;;;;;1.35;0.85;;;22.90;54.20;;;;;;5097453;28;20610;-86
2022/05/13 14:00:05;;;;;;;2.20;0.70;;;23.00;54.50;;;;;;5047672;28;20193;-87
2022/05/13 14:02:45;;;;;;;1.05;0.80;;;22.80;64.40;;;;;;5097705;28;20259;-87
2022/05/13 14:05:19;;;;;;;1.30;1.10;;;23.10;54.20;;;;;;5097500;28;20556;-87
2022/05/13 14:07:50;;;;;;;1.45;0.82;;;23.20;54.90;;;;;;5097636;28;20170;-87